createdAt,value
2023-02-01T00:00:33.703Z,3.6
2023-02-01T00:05:33.836Z,3.6
2023-02-01T00:10:33.587Z,3.6
2023-02-01T00:15:33.939Z,3.6
2023-02-01T00:20:34.185Z,3.6
2023-02-01T00:25:34.273Z,3.6
2023-02-01T00:30:33.444Z,3.6
2023-02-01T08:40:34.700Z,2.8
2023-02-01T08:45:33.915Z,2.8
2023-02-01T08:50:34.211Z,2.4
2023-02-01T08:55:34.086Z,2.4
2023-02-01T09:00:34.640Z,3.2
2023-02-01T09:06:22.546Z,3.2
2023-02-01T09:10:35.499Z,3.1
2023-02-01T09:15:34.657Z,3.1
2023-02-01T09:20:33.856Z,1.7
2023-02-01T09:25:33.930Z,1.7
2023-02-01T09:30:33.864Z,1.7
2023-02-01T09:35:33.958Z,1.7
2023-02-01T09:40:34.335Z,2.2
2023-02-01T09:45:34.335Z,2.2
2023-02-01T09:50:34.602Z,3.4
2023-02-01T09:55:33.923Z,3.4
2023-02-01T10:00:34.136Z,3.1
2023-02-01T10:05:34.543Z,3.1
2023-02-01T10:10:34.135Z,3.2
2023-02-01T10:15:34.012Z,3.2
2023-02-01T10:20:34.219Z,3.9
2023-02-01T10:25:34.303Z,3.9
2023-02-01T10:30:35.646Z,3.5
2023-02-01T10:35:33.878Z,3.5
2023-02-01T10:40:34.270Z,4.7
2023-02-01T10:45:34.023Z,4.7
2023-02-01T10:50:34.399Z,4
2023-02-01T10:55:34.604Z,4
2023-02-01T11:00:33.812Z,4.5
2023-02-01T11:05:34.149Z,4.5
2023-02-01T11:10:34.694Z,2.6
2023-02-01T11:15:33.745Z,2.6
2023-02-01T11:20:33.731Z,3.5
2023-02-01T11:25:34.020Z,3.5
2023-02-01T11:30:34.370Z,4.2
2023-02-01T11:35:34.733Z,4.2
2023-02-01T11:40:33.827Z,4.6
2023-02-01T11:45:33.792Z,4.6
2023-02-01T11:50:34.191Z,3.7
2023-02-01T11:55:34.235Z,3.7
2023-02-01T12:00:34.465Z,3.8
2023-02-01T12:05:34.423Z,3.8
2023-02-01T12:10:34.569Z,3.7
2023-02-01T12:15:33.866Z,3.7
2023-02-01T12:20:34.421Z,3.6
2023-02-01T12:25:33.841Z,3.6
2023-02-01T12:30:34.009Z,3.9
2023-02-01T12:35:34.406Z,3.9
2023-02-01T12:40:34.449Z,4.1
2023-02-01T12:45:34.698Z,4.1
2023-02-01T12:50:34.095Z,4.9
2023-02-01T12:55:34.143Z,4.9
2023-02-01T13:00:34.295Z,4.5
2023-02-01T13:05:34.343Z,4.5
2023-02-01T13:10:34.491Z,4.9
2023-02-01T13:15:34.479Z,4.9
2023-02-01T13:20:34.536Z,3.7
2023-02-01T13:25:34.516Z,3.7
2023-02-01T13:30:34.663Z,2.6
2023-02-01T13:35:33.923Z,2.6
2023-02-01T13:40:33.848Z,2.2
2023-02-01T13:45:34.100Z,2.2
2023-02-01T13:50:34.145Z,2.4
2023-02-01T13:55:34.240Z,2.4
2023-02-01T14:00:36.039Z,3.4
2023-02-01T14:05:34.671Z,3.4
2023-02-01T14:10:34.800Z,2.2
2023-02-01T14:15:33.881Z,2.2
2023-02-01T14:20:34.317Z,2.2
2023-02-01T14:25:34.512Z,2.2
2023-02-01T14:30:33.994Z,1.8
2023-02-01T14:35:34.042Z,1.8
2023-02-01T14:40:34.396Z,2.5
2023-02-01T14:45:34.798Z,2.5
2023-02-01T14:50:34.116Z,2.4
2023-02-01T14:55:34.199Z,2.4
2023-02-01T15:00:33.895Z,3.2
2023-02-01T15:05:34.243Z,3.2
2023-02-01T15:10:33.866Z,3
2023-02-01T15:15:34.864Z,3
2023-02-01T15:20:34.312Z,2.4
2023-02-01T15:25:34.145Z,2.4
2023-02-01T15:30:34.569Z,2.2
2023-02-01T15:35:34.777Z,2.2
2023-02-01T15:40:33.968Z,2.7
2023-02-01T15:45:33.911Z,2.7
2023-02-01T15:50:34.385Z,2.7
2023-02-01T15:55:34.728Z,2.7
2023-02-01T16:00:34.838Z,2.3
2023-02-01T16:05:34.520Z,2.3
2023-02-01T16:10:34.099Z,2.6
2023-02-01T16:15:34.406Z,2.6
2023-02-01T16:20:34.786Z,2.6
2023-02-01T16:25:33.997Z,2.6
2023-02-01T16:30:34.223Z,1.8
2023-02-01T16:35:34.791Z,1.8
2023-02-01T16:40:34.957Z,1.8
2023-02-01T16:45:34.044Z,1.8
2023-02-01T16:50:34.264Z,2.1
2023-02-01T16:55:34.527Z,2.1
2023-02-01T17:00:34.118Z,1.8
2023-02-01T17:05:34.666Z,1.8
2023-02-01T17:10:34.987Z,2
2023-02-01T17:15:34.276Z,2
2023-02-01T17:20:34.351Z,2.3
2023-02-01T17:25:34.617Z,2.3
2023-02-01T17:30:34.791Z,1.8
2023-02-01T17:35:34.033Z,1.8
2023-02-01T17:40:34.383Z,2.7
2023-02-01T17:45:34.601Z,2.7
2023-02-01T17:50:34.779Z,2.7
2023-02-01T17:55:34.913Z,2.7
2023-02-01T18:00:35.744Z,3
2023-02-01T18:05:33.953Z,3
2023-02-01T18:10:34.033Z,3.1
2023-02-01T18:15:34.101Z,3.1
2023-02-01T18:20:34.163Z,2.8
2023-02-01T18:25:34.206Z,2.8
2023-02-01T18:30:34.325Z,3.9
2023-02-01T18:35:34.503Z,3.9
2023-02-01T18:40:34.621Z,3.6
2023-02-01T18:45:34.662Z,3.6
2023-02-01T18:50:34.738Z,2.7
2023-02-01T18:55:34.881Z,2.7
2023-02-01T19:00:34.017Z,2.8
2023-02-01T19:05:34.079Z,2.8
2023-02-01T19:10:34.644Z,2.7
2023-02-01T19:15:34.180Z,2.7
2023-02-01T19:20:34.383Z,3.3
2023-02-01T19:25:34.430Z,3.3
2023-02-01T19:30:34.327Z,3.6
2023-02-01T19:35:34.562Z,3.6
2023-02-01T19:40:34.659Z,4
2023-02-01T19:45:34.649Z,4
2023-02-01T19:50:35.062Z,4.6
2023-02-01T19:55:34.736Z,4.6
2023-02-01T20:00:33.984Z,4.2
2023-02-01T20:05:33.988Z,4.2
2023-02-01T20:10:34.090Z,4
2023-02-01T20:15:33.292Z,4
2023-02-01T20:20:33.519Z,4
2023-02-01T20:25:34.564Z,4
2023-02-01T20:30:34.794Z,3.9
2023-02-01T20:35:34.283Z,3.9
2023-02-01T20:40:34.380Z,3.8
2023-02-01T20:45:34.473Z,3.8
2023-02-01T20:50:34.392Z,3.1
2023-02-01T20:55:35.057Z,3.1
2023-02-01T21:00:34.566Z,4
2023-02-01T21:05:34.651Z,4
2023-02-01T21:10:34.829Z,3.7
2023-02-01T21:15:34.975Z,3.7
2023-02-01T21:20:35.032Z,3.6
2023-02-01T21:25:34.715Z,3.6
2023-02-01T21:30:34.842Z,4.2
2023-02-01T21:35:34.661Z,4.2
2023-02-01T21:40:34.777Z,4.3
2023-02-01T21:45:34.636Z,4.3
2023-02-01T21:50:34.940Z,4.5
2023-02-01T21:55:34.643Z,4.5
2023-02-01T22:00:34.293Z,4.1
2023-02-01T22:05:34.584Z,4.1
2023-02-01T22:10:34.775Z,4.2
2023-02-01T22:15:34.797Z,4.2
2023-02-01T22:20:34.886Z,4.5
2023-02-01T22:25:34.967Z,4.5
2023-02-01T22:30:35.139Z,5.3
2023-02-01T22:35:34.672Z,5.3
2023-02-01T22:40:36.115Z,4.1
2023-02-01T22:45:34.126Z,4.1
2023-02-01T22:50:34.476Z,4.4
2023-02-01T22:55:34.366Z,4.4
2023-02-01T23:00:34.855Z,4.5
2023-02-01T23:05:35.040Z,4.5
2023-02-01T23:10:34.312Z,3.9
2023-02-01T23:15:34.440Z,3.9
2023-02-01T23:20:34.602Z,3.8
2023-02-01T23:25:34.691Z,3.8
2023-02-01T23:30:35.080Z,3.4
2023-02-01T23:35:34.180Z,3.4
2023-02-01T23:40:34.535Z,3.3
2023-02-01T23:45:34.487Z,3.3
2023-02-01T23:55:35.223Z,3.5
